Latest Weather Observations for Condobolin Airport

IDN60801

Issued at 4:33 pm EST Friday 26 August 2016 (issued every 30 minutes, with the page automatically refreshed every 10 minutes)

About weather observations | Map of weather stations | Latest weather observations for NSW | Other Formats
Station Details ID: 050137 Name: CONDOBOLIN AIRPORT AWS Lat: -33.07 Lon: 147.21 Height: 192.6 m
Data from the previous 72 hours. | See also: Recent months at Condobolin Airport
Date/Time
EST
Temp
°C
App
Temp
°C
Dew
Point
°C
Rel
Hum
%
Delta-T
°C
Wind Press
QNH
hPa
Press
MSL
hPa
Rain since
9am
mm
Dir  Spd
km/h
Gust
km/h
Spd
kts
Gust
kts
26/04:30pm 12.8 7.9 4.0 55 4.0 SSW 19 26 10 14 1020.9 1021.1 0.0
26/04:00pm 12.4 7.6 4.6 59 3.6 SSW 19 24 10 13 1020.7 1020.9 0.0
26/03:30pm 12.6 6.7 3.8 55 4.0 SW 24 33 13 18 1020.7 1020.9 0.0
26/03:00pm 13.0 8.5 6.1 63 3.3 SW 19 24 10 13 1020.5 1020.7 0.0
26/02:30pm 13.1 8.0 4.3 55 4.1 SW 20 28 11 15 1020.5 1020.7 0.0
26/02:00pm 13.9 8.9 4.8 54 4.3 SW 20 30 11 16 1020.5 1020.7 0.0
26/01:30pm 13.3 8.5 4.7 56 4.0 SW 19 26 10 14 1020.6 1020.8 0.0
26/01:00pm 13.2 7.9 4.9 57 3.9 SW 22 30 12 16 1020.9 1021.1 0.0
26/12:30pm 13.2 8.4 4.9 57 3.9 SSW 19 26 10 14 1021.3 1021.5 0.0
26/12:00pm 12.4 8.8 5.1 61 3.4 SSW 13 19 7 10 1021.6 1021.8 0.0
26/11:30am 11.8 8.9 6.7 71 2.5 SW 11 19 6 10 1021.8 1022.0 0.0
26/11:00am 10.7 7.7 6.1 73 2.2 WSW 11 17 6 9 1022.0 1022.2 0.0
26/10:30am 9.7 7.1 6.2 79 1.6 SW 9 13 5 7 1022.2 1022.4 0.0
26/10:00am 8.5 6.4 5.6 82 1.3 SW 6 13 3 7 1022.1 1022.3 0.0
26/09:30am 7.6 5.2 5.4 86 1.0 WSW 7 11 4 6 1022.2 1022.4 0.0
26/09:00am 6.6 3.9 5.4 92 0.5 SW 9 11 5 6 1022.2 1022.4 0.2
26/08:30am 5.3 2.4 4.7 96 0.3 WSW 9 13 5 7 1022.1 1022.3 0.2
26/08:00am 4.2 2.1 4.1 99 0.0 NNW 4 7 2 4 1021.7 1021.9 0.2
26/07:30am 2.2 0.5 2.1 99 0.0 CALM 0 0 0 0 1021.5 1021.7 0.2
26/07:00am 0.5 -2.6 0.4 99 0.0 SSW 6 11 3 6 1021.1 1021.3 0.2
26/06:30am 0.6 -3.4 0.5 99 0.0 WNW 11 13 6 7 1020.5 1020.7 0.2
26/06:00am 0.4 -3.6 0.3 99 0.0 W 11 11 6 6 1020.3 1020.5 0.2
26/05:30am 1.3 -2.6 1.2 99 0.0 W 11 13 6 7 1020.0 1020.2 0.2
26/05:00am 1.7 -2.1 1.6 99 0.0 WNW 11 13 6 7 1019.8 1020.0 0.2
26/04:30am 2.0 -0.8 1.9 99 0.0 W 6 7 3 4 1019.6 1019.8 0.2
26/04:00am 1.8 -1.1 1.7 99 0.0 WNW 6 7 3 4 1019.1 1019.4 0.2
26/03:30am 1.6 -1.5 1.3 98 0.1 WNW 7 11 4 6 1018.9 1019.2 0.2
26/03:00am 2.5 -1.2 2.4 99 0.0 W 11 13 6 7 1018.8 1019.1 0.2
26/02:30am 2.0 -1.4 1.7 98 0.1 W 9 11 5 6 1019.0 1019.3 0.2
26/02:00am 2.5 -1.2 2.1 97 0.2 WNW 11 13 6 7 1018.9 1019.2 0.2
26/01:30am 3.3 -0.3 2.9 97 0.2 WNW 11 13 6 7 1019.0 1019.3 0.2
26/01:00am 3.9 0.0 3.6 98 0.1 WNW 13 15 7 8 1019.0 1019.3 0.0
26/12:30am 3.4 -0.6 2.8 96 0.2 NW 13 15 7 8 1019.0 1019.3 0.0
26/12:00am 3.5 -0.5 3.1 97 0.2 NW 13 15 7 8 1019.0 1019.3 0.0
 
Date/Time
EST
Temp
°C
App
Temp
°C
Dew
Point
°C
Rel
Hum
%
Delta-T
°C
Wind Press
QNH
hPa
Press
MSL
hPa
Rain since
9am
mm
Dir  Spd
km/h
Gust
km/h
Spd
kts
Gust
kts
25/11:30pm 3.3 -0.4 2.6 95 0.3 WNW 11 13 6 7 1018.9 1019.2 0.0
25/11:00pm 3.8 0.6 2.8 93 0.4 WNW 9 11 5 6 1018.7 1019.0 0.0
25/10:30pm 3.8 0.5 2.5 91 0.5 W 9 11 5 6 1018.6 1018.8 0.0
25/10:00pm 4.7 1.8 2.6 86 0.9 W 7 9 4 5 1018.5 1018.7 0.0
25/09:30pm 5.8 2.3 3.3 84 1.1 WSW 11 13 6 7 1018.4 1018.6 0.0
25/09:00pm 6.7 2.5 3.9 82 1.2 WSW 15 17 8 9 1018.2 1018.4 0.0
25/08:30pm 7.5 3.8 4.6 82 1.3 W 13 17 7 9 1018.1 1018.3 0.0
25/08:00pm 7.9 3.5 4.8 81 1.4 WSW 17 26 9 14 1018.1 1018.3 0.0
25/07:30pm 8.4 3.5 5.2 80 1.4 SW 20 28 11 15 1017.7 1017.9 0.0
25/07:00pm 8.1 3.7 5.0 81 1.4 WSW 17 20 9 11 1017.3 1017.5 0.0
25/06:30pm 8.4 4.8 5.0 79 1.5 WSW 13 19 7 10 1016.9 1017.1 0.0
25/06:00pm 9.2 4.8 4.8 74 2.0 WSW 17 22 9 12 1016.5 1016.7 0.0
25/05:30pm 10.4 5.9 4.3 66 2.7 WSW 17 22 9 12 1016.1 1016.3 0.0
25/05:00pm 10.6 5.7 4.1 64 2.9 WSW 19 26 10 14 1015.7 1015.9 0.0
25/04:30pm 11.1 5.6 3.9 61 3.2 WSW 22 35 12 19 1015.6 1015.8 0.0
25/04:00pm 12.4 6.9 4.1 57 3.8 SW 22 32 12 17 1015.4 1015.6 0.0
25/03:30pm 12.6 5.7 4.6 58 3.7 WSW 30 35 16 19 1015.3 1015.5 0.0
25/03:00pm 11.4 5.7 5.1 65 2.9 WSW 24 32 13 17 1015.2 1015.4 0.0
25/02:30pm 12.1 6.5 5.5 64 3.1 WSW 24 35 13 19 1015.1 1015.3 0.0
25/02:00pm 11.9 5.7 4.4 60 3.4 WSW 26 35 14 19 1014.8 1015.0 0.0
25/01:30pm 11.2 4.7 4.9 65 2.9 SW 28 35 15 19 1014.8 1015.0 0.0
25/01:00pm 12.3 6.1 6.1 66 3.0 SW 28 39 15 21 1014.7 1014.9 0.0
25/12:30pm 11.6 5.3 5.7 67 2.8 WSW 28 37 15 20 1014.8 1015.0 0.0
25/12:00pm 12.6 7.0 7.1 69 2.7 WSW 26 37 14 20 1014.9 1015.1 0.0
25/11:30am 11.6 6.4 7.1 74 2.2 WSW 24 35 13 19 1015.1 1015.3 0.0
25/11:00am 11.1 6.7 7.2 77 1.9 WSW 20 30 11 16 1015.2 1015.4 0.0
25/10:30am 9.9 5.3 6.3 78 1.7 W 20 26 11 14 1015.2 1015.4 0.0
25/10:00am 9.5 5.2 6.8 83 1.3 W 19 24 10 13 1015.2 1015.4 0.0
25/09:30am 8.4 4.0 6.5 88 0.9 W 19 22 10 12 1015.1 1015.3 0.0
25/09:00am 7.6 3.9 6.1 90 0.7 WNW 15 19 8 10 1014.9 1015.1 2.6
25/08:30am 7.0 3.7 6.3 95 0.3 WNW 13 19 7 10 1014.8 1015.0 2.6
25/08:00am 5.7 1.9 5.6 99 0.0 NW 15 19 8 10 1014.3 1014.4 2.6
25/07:30am 4.6 0.5 4.5 99 0.0 WNW 15 19 8 10 1014.2 1014.3 2.6
25/07:00am 3.1 -0.9 3.0 99 0.0 WNW 13 15 7 8 1013.7 1013.9 2.6
25/06:30am 3.4 -0.5 3.3 99 0.0 WNW 13 17 7 9 1013.5 1013.7 2.6
25/06:00am 3.5 0.0 3.4 99 0.0 WNW 11 13 6 7 1013.1 1013.3 2.6
25/05:30am 4.2 1.2 4.1 99 0.0 WNW 9 13 5 7 1012.8 1013.0 2.6
25/05:00am 4.9 1.6 4.8 99 0.0 WNW 11 15 6 8 1012.4 1012.6 2.6
25/04:30am 5.7 3.4 5.6 99 0.0 W 7 11 4 6 1012.0 1012.2 2.6
25/04:00am 6.7 3.4 6.6 99 0.0 WSW 13 17 7 9 1011.7 1011.9 2.6
25/03:30am 7.5 4.8 7.4 99 0.0 W 11 15 6 8 1011.7 1011.9 2.6
25/03:00am 7.7 5.8 7.6 99 0.0 W 7 11 4 6 1011.7 1011.9 2.6
25/02:30am 7.7 5.8 7.6 99 0.0 WSW 7 9 4 5 1011.5 1011.7 2.6
25/02:00am 7.3 4.9 7.2 99 0.0 WSW 9 9 5 5 1011.7 1011.9 2.6
25/01:30am 7.5 5.8 7.4 99 0.0 SW 6 9 3 5 1011.6 1011.8 2.6
25/01:00am 8.1 5.6 8.0 99 0.0 WSW 11 17 6 9 1011.8 1012.0 2.6
25/12:30am 7.8 5.2 7.7 99 0.0 SW 11 17 6 9 1011.8 1012.0 2.6
25/12:00am 7.8 4.4 7.7 99 0.0 WSW 15 20 8 11 1011.8 1012.0 2.6
 
Date/Time
EST
Temp
°C
App
Temp
°C
Dew
Point
°C
Rel
Hum
%
Delta-T
°C
Wind Press
QNH
hPa
Press
MSL
hPa
Rain since
9am
mm
Dir  Spd
km/h
Gust
km/h
Spd
kts
Gust
kts
24/11:30pm 8.3 5.4 8.2 99 0.0 WSW 13 19 7 10 1011.6 1011.8 2.6
24/11:00pm 8.1 4.8 8.0 99 0.0 WSW 15 20 8 11 1011.7 1011.9 2.6
24/10:30pm 8.3 5.4 8.2 99 0.0 WSW 13 17 7 9 1011.5 1011.7 2.6
24/10:00pm 8.6 5.7 8.2 97 0.2 SSW 13 19 7 10 1011.1 1011.3 2.6
24/09:30pm 8.8 4.9 8.7 99 0.0 SW 19 20 10 11 1011.3 1011.5 2.6
24/09:00pm 9.0 6.7 8.9 99 0.0 SW 11 13 6 7 1011.2 1011.4 2.6
24/08:30pm 9.2 6.5 9.1 99 0.0 SW 13 15 7 8 1011.0 1011.2 2.4
24/08:00pm 9.4 6.4 9.3 99 0.1 SW 15 20 8 11 1010.9 1011.1 2.4
24/07:30pm 9.4 6.4 9.3 99 0.0 SW 15 19 8 10 1010.7 1010.9 2.4
24/07:00pm 9.7 7.2 9.6 99 0.1 SW 13 17 7 9 1010.5 1010.7 2.4
24/06:30pm 9.4 9.3 9.3 99 0.0 CALM 0 6 0 3 1010.1 1010.3 1.4
24/06:00pm 9.4 7.9 9.3 99 0.1 WNW 7 9 4 5 1009.8 1009.9 1.2
24/05:30pm 9.7 8.5 9.6 99 0.1 SW 6 7 3 4 1009.5 1009.6 1.2
24/05:00pm 9.7 8.9 9.6 99 0.1 S 4 7 2 4 1009.2 1009.3 1.0
24/04:30pm 10.0 8.3 9.9 99 0.1 SW 9 13 5 7 1009.2 1009.3 0.6
24/04:00pm 9.9 7.8 9.8 99 0.1 SW 11 13 6 7 1009.0 1009.1 0.0
24/03:30pm 9.9 7.7 9.3 96 0.3 SSW 11 13 6 7 1008.9 1009.0 0.0
24/03:00pm 10.6 7.4 10.1 97 0.3 SW 17 20 9 11 1008.8 1008.9 0.0
24/02:30pm 11.3 8.2 10.4 94 0.5 SW 17 20 9 11 1009.0 1009.1 0.0
24/02:00pm 11.3 8.9 10.0 92 0.7 WSW 13 17 7 9 1009.4 1009.5 0.0
24/01:30pm 11.3 9.6 10.0 92 0.7 WSW 9 13 5 7 1009.7 1009.8 0.0
24/01:00pm 11.8 10.3 10.4 91 0.7 SW 9 13 5 7 1009.5 1009.6 0.0
24/12:30pm 11.5 10.5 10.2 92 0.7 SSE 6 9 3 5 1009.9 1010.0 0.0
24/12:00pm 10.4 10.5 10.1 98 0.2 CALM 0 0 0 0 1010.7 1010.9 0.0
24/11:30am 10.0 9.6 9.9 99 0.1 SSE 2 7 1 4 1011.1 1011.3 0.0
24/11:00am 9.5 8.1 9.4 99 0.1 E 7 9 4 5 1011.5 1011.7 0.0
24/10:30am 8.9 7.3 8.8 99 0.0 ESE 7 9 4 5 1011.3 1011.5 0.0
24/10:00am 7.6 7.0 7.5 99 0.0 CALM 0 0 0 0 1011.9 1012.1 0.0
24/09:30am 7.2 6.5 7.1 99 0.0 CALM 0 6 0 3 1012.0 1012.2 0.0
24/09:00am 6.6 4.5 6.5 99 0.0 SSW 7 9 4 5 1012.2 1012.4 0.0
24/08:30am 5.9 4.9 5.8 99 0.0 CALM 0 6 0 3 1012.2 1012.4 0.0
24/08:00am 5.5 4.5 5.4 99 0.0 CALM 0 0 0 0 1012.4 1012.6 0.0
24/07:30am 4.9 3.7 4.8 99 0.0 CALM 0 0 0 0 1012.0 1012.2 0.0
24/07:00am 4.5 3.3 4.4 99 0.0 CALM 0 0 0 0 1011.8 1012.0 0.0
24/06:30am 4.3 1.9 4.2 99 0.0 W 6 7 3 4 1012.1 1012.3 0.0
24/06:00am 4.0 2.7 3.9 99 0.0 CALM 0 0 0 0 1012.1 1012.3 0.0
24/05:30am 3.1 1.6 3.0 99 0.0 CALM 0 0 0 0 1011.8 1012.0 0.0
24/05:00am 3.1 0.8 3.0 99 0.0 NW 4 7 2 4 1011.7 1011.9 0.0
24/04:30am 1.8 0.1 1.7 99 0.0 CALM 0 0 0 0 1011.3 1011.5 0.0
24/04:00am 2.2 0.5 2.1 99 0.0 CALM 0 0 0 0 1011.9 1012.1 0.0
24/03:30am 2.0 0.3 1.9 99 0.0 CALM 0 0 0 0 1012.3 1012.5 0.0
24/03:00am 1.5 -0.3 1.4 99 0.0 CALM 0 0 0 0 1012.2 1012.4 0.0
24/02:30am 2.1 0.4 2.0 99 0.0 CALM 0 0 0 0 1012.8 1013.0 0.0
24/02:00am 2.4 0.8 2.3 99 0.0 CALM 0 0 0 0 1013.2 1013.4 0.0
24/01:30am 2.5 0.9 2.4 99 0.0 CALM 0 0 0 0 1013.4 1013.6 0.0
24/01:00am 2.9 1.4 2.8 99 0.0 CALM 0 0 0 0 1013.6 1013.8 0.0
24/12:30am 3.1 1.6 3.0 99 0.0 CALM 0 0 0 0 1013.9 1014.1 0.0
24/12:00am 3.0 1.5 2.9 99 0.0 CALM 0 0 0 0 1014.4 1014.6 0.0
 
Date/Time
EST
Temp
°C
App
Temp
°C
Dew
Point
°C
Rel
Hum
%
Delta-T
°C
Wind Press
QNH
hPa
Press
MSL
hPa
Rain since
9am
mm
Dir  Spd
km/h
Gust
km/h
Spd
kts
Gust
kts
23/11:30pm 3.4 2.0 3.3 99 0.0 CALM 0 0 0 0 1014.9 1015.1 0.0
23/11:00pm 3.9 2.5 3.8 99 0.0 CALM 0 0 0 0 1015.1 1015.3 0.0
23/10:30pm 4.0 1.3 3.9 99 0.0 SW 7 7 4 4 1015.1 1015.3 0.0
23/10:00pm 3.7 2.3 3.6 99 0.0 CALM 0 0 0 0 1015.5 1015.7 0.0
23/09:30pm 4.2 2.9 3.9 98 0.1 CALM 0 0 0 0 1015.8 1016.0 0.0
23/09:00pm 5.6 3.3 5.5 99 0.0 WNW 7 9 4 5 1015.8 1016.0 0.0
23/08:30pm 5.7 3.5 5.4 98 0.1 SSW 6 7 3 4 1015.3 1015.5 0.0
23/08:00pm 6.6 4.5 6.5 99 0.0 WNW 7 9 4 5 1015.3 1015.5 0.0
23/07:30pm 6.8 5.5 6.2 96 0.3 W 2 7 1 4 1016.0 1016.2 0.0
23/07:00pm 7.3 5.6 6.1 92 0.5 SE 4 7 2 4 1015.2 1015.4 0.0
23/06:30pm 8.8 6.8 7.3 90 0.7 SE 7 11 4 6 1014.6 1014.8 0.0
23/06:00pm 9.9 8.1 7.8 87 1.0 SE 7 9 4 5 1015.1 1015.3 0.0
23/05:30pm 11.0 9.5 8.4 84 1.3 SE 6 7 3 4 1015.1 1015.3 0.0
23/05:00pm 10.9 9.1 8.1 83 1.4 SSE 7 9 4 5 1015.2 1015.4 0.0

Other Formats:

Comma delimited format used in spreadsheet applications
http://www.bom.gov.au/fwo/IDN60801/IDN60801.95708.axf

JavaScript Object Notation format (JSON) in row-major order
http://www.bom.gov.au/fwo/IDN60801/IDN60801.95708.json